createdAt,value
2023-02-02T00:01:50.865Z,77.62
2023-02-02T00:04:22.610Z,77.38
2023-02-02T00:06:49.828Z,78.03
2023-02-02T00:09:19.230Z,77.28
2023-02-02T00:11:48.010Z,77.42
2023-02-02T00:14:15.156Z,76.71
2023-02-02T00:16:44.733Z,76.93
2023-02-02T00:19:18.154Z,77.43
2023-02-02T00:21:45.608Z,77.66
2023-02-02T00:24:15.119Z,77.47
2023-02-02T00:26:43.289Z,77.58
2023-02-02T00:29:19.134Z,77.62
2023-02-02T00:31:48.745Z,77.29
2023-02-02T00:34:16.684Z,77.47
2023-02-02T00:36:44.674Z,78.48
2023-02-02T00:39:15.870Z,77.30
2023-02-02T00:41:42.966Z,78.34
2023-02-02T00:44:28.726Z,78.35
2023-02-02T00:46:55.813Z,78.35
2023-02-02T00:49:23.193Z,79.18
2023-02-02T00:51:50.811Z,77.30
2023-02-02T00:54:17.949Z,77.00
2023-02-02T00:56:44.985Z,76.42
2023-02-02T00:59:12.133Z,76.68
2023-02-02T01:01:39.269Z,76.65
2023-02-02T01:04:06.796Z,76.91
2023-02-02T01:06:33.888Z,76.93
2023-02-02T01:09:02.035Z,76.59
2023-02-02T01:11:30.907Z,76.43
2023-02-02T01:13:58.152Z,76.39
2023-02-02T01:16:25.486Z,76.16
2023-02-02T01:18:53.022Z,76.40
2023-02-02T01:21:20.828Z,75.67
2023-02-02T01:23:48.553Z,75.91
2023-02-02T01:26:16.911Z,76.67
2023-02-02T01:28:44.948Z,75.79
2023-02-02T01:31:14.552Z,76.07
2023-02-02T01:33:42.392Z,76.27
2023-02-02T01:36:13.617Z,75.63
2023-02-02T01:38:41.176Z,76.80
2023-02-02T01:41:09.131Z,77.67
2023-02-02T01:43:41.868Z,78.70
2023-02-02T01:46:24.027Z,77.87
2023-02-02T01:49:12.253Z,77.04
2023-02-02T01:51:50.369Z,77.17
2023-02-02T01:54:32.553Z,76.49
2023-02-02T01:57:25.129Z,77.45
2023-02-02T01:59:55.152Z,77.67
2023-02-02T02:02:25.702Z,77.24
2023-02-02T02:04:54.327Z,76.13
2023-02-02T02:07:22.199Z,75.82
2023-02-02T02:09:49.473Z,76.00
2023-02-02T02:12:16.777Z,76.74
2023-02-02T02:15:05.878Z,76.49
2023-02-02T02:17:35.182Z,75.35
2023-02-02T02:20:39.310Z,75.02
2023-02-02T02:24:10.789Z,74.63
2023-02-02T02:26:46.889Z,75.03
2023-02-02T02:29:44.321Z,73.50
2023-02-02T02:32:33.892Z,73.47
2023-02-02T02:35:22.350Z,74.41
2023-02-02T02:37:58.866Z,74.23
2023-02-02T02:40:34.535Z,74.65
2023-02-02T02:43:09.093Z,74.11
2023-02-02T02:45:37.805Z,74.19
2023-02-02T02:48:05.547Z,73.75
2023-02-02T02:50:32.682Z,75.22
2023-02-02T02:53:09.661Z,75.23
2023-02-02T02:56:06.677Z,73.75
2023-02-02T02:58:37.023Z,73.81
2023-02-02T03:01:03.992Z,72.78
2023-02-02T03:03:43.214Z,72.25
2023-02-02T03:06:21.910Z,72.02
2023-02-02T03:09:11.532Z,72.37
2023-02-02T03:11:38.662Z,73.26
2023-02-02T03:14:09.688Z,74.22
2023-02-02T03:16:37.562Z,73.52
2023-02-02T03:19:06.400Z,73.88
2023-02-02T03:21:34.392Z,73.55
2023-02-02T03:24:02.033Z,74.04
2023-02-02T03:26:29.379Z,74.17
2023-02-02T03:28:57.762Z,74.26
2023-02-02T03:31:27.311Z,74.25
2023-02-02T03:33:55.105Z,74.63
2023-02-02T03:36:22.677Z,74.38
2023-02-02T03:38:49.775Z,73.76
2023-02-02T03:41:16.849Z,73.40
2023-02-02T03:43:43.962Z,74.39
2023-02-02T03:46:11.137Z,74.03
2023-02-02T03:48:39.287Z,73.94
2023-02-02T03:51:11.806Z,74.34
2023-02-02T03:53:39.801Z,72.58
2023-02-02T03:56:07.410Z,74.76
2023-02-02T03:58:34.519Z,74.55
2023-02-02T04:01:11.948Z,74.94
2023-02-02T04:03:39.230Z,74.83
2023-02-02T04:06:06.584Z,74.48
2023-02-02T04:08:34.279Z,74.53
2023-02-02T04:11:01.558Z,74.42
2023-02-02T04:13:28.723Z,73.48
2023-02-02T04:16:00.164Z,74.97
2023-02-02T04:18:28.533Z,74.62
2023-02-02T04:21:00.343Z,74.26
2023-02-02T04:23:29.109Z,75.52
2023-02-02T04:25:56.809Z,76.14
2023-02-02T04:28:24.487Z,75.79
2023-02-02T04:30:53.024Z,76.64
2023-02-02T04:33:21.548Z,77.37
2023-02-02T04:35:49.086Z,77.79
2023-02-02T04:38:16.362Z,77.93
2023-02-02T04:40:45.314Z,77.36
2023-02-02T04:43:33.534Z,76.76
2023-02-02T04:46:00.720Z,78.70
2023-02-02T04:48:27.798Z,78.46
2023-02-02T04:51:02.310Z,77.54
2023-02-02T04:53:29.790Z,79.44
2023-02-02T04:55:57.070Z,79.29
2023-02-02T04:58:24.629Z,78.27
2023-02-02T05:00:51.686Z,78.18
2023-02-02T05:03:18.733Z,78.32
2023-02-02T05:05:45.781Z,78.54
2023-02-02T05:08:12.850Z,76.70
2023-02-02T05:10:41.777Z,77.66
2023-02-02T05:13:09.278Z,77.29
2023-02-02T05:15:36.301Z,76.98
2023-02-02T05:18:03.435Z,77.34
2023-02-02T05:20:30.478Z,76.71
2023-02-02T05:22:57.517Z,79.14
2023-02-02T05:25:24.765Z,79.00
2023-02-02T05:27:52.030Z,78.33
2023-02-02T05:30:19.293Z,78.33
2023-02-02T05:32:46.418Z,76.95
2023-02-02T05:35:13.504Z,77.46
2023-02-02T05:37:42.868Z,78.46
2023-02-02T05:40:10.697Z,77.68
2023-02-02T05:42:37.729Z,77.34
2023-02-02T05:45:05.488Z,76.98
2023-02-02T05:47:32.625Z,76.18
2023-02-02T05:49:59.635Z,77.45
2023-02-02T05:52:27.238Z,77.50
2023-02-02T05:54:54.258Z,76.75
2023-02-02T05:57:21.280Z,77.28
2023-02-02T05:59:48.372Z,74.88
2023-02-02T06:02:15.455Z,75.97
2023-02-02T06:04:42.449Z,76.87
2023-02-02T06:07:09.526Z,76.66
2023-02-02T06:09:36.561Z,77.54
2023-02-02T06:12:04.047Z,76.92
2023-02-02T06:14:31.330Z,77.02
2023-02-02T06:16:58.369Z,76.42
2023-02-02T06:19:25.369Z,77.23
2023-02-02T06:21:52.533Z,77.34
2023-02-02T06:24:19.649Z,76.16
2023-02-02T06:26:46.729Z,76.45
2023-02-02T06:29:14.064Z,78.20
2023-02-02T06:31:41.761Z,78.15
2023-02-02T06:34:13.673Z,76.69
2023-02-02T06:36:41.826Z,75.25
2023-02-02T06:39:09.802Z,75.26
2023-02-02T06:41:37.047Z,75.55
2023-02-02T06:44:04.091Z,74.79
2023-02-02T06:46:31.356Z,75.32
2023-02-02T06:48:58.477Z,75.42
2023-02-02T06:51:25.540Z,73.87
2023-02-02T06:53:52.718Z,74.04
2023-02-02T06:56:19.770Z,74.58
2023-02-02T06:58:46.783Z,74.07
2023-02-02T07:01:14.801Z,74.16
2023-02-02T07:03:42.083Z,74.39
2023-02-02T07:06:20.672Z,75.97
2023-02-02T07:09:02.037Z,75.59
2023-02-02T07:11:36.566Z,74.82
2023-02-02T07:14:05.601Z,74.48
2023-02-02T07:16:32.617Z,75.02
2023-02-02T07:18:59.662Z,74.99
2023-02-02T07:21:35.763Z,75.61
2023-02-02T07:24:04.884Z,74.90
2023-02-02T07:26:34.004Z,73.55
2023-02-02T07:29:01.087Z,73.37
2023-02-02T07:31:29.264Z,72.46
2023-02-02T07:33:56.514Z,72.32
2023-02-02T07:36:24.691Z,70.77
2023-02-02T07:38:57.583Z,71.31
2023-02-02T07:41:24.912Z,72.48
2023-02-02T07:43:52.416Z,71.36
2023-02-02T07:46:20.642Z,72.69
2023-02-02T07:48:48.171Z,73.30
2023-02-02T07:51:17.538Z,73.48
2023-02-02T07:53:47.116Z,72.80
2023-02-02T07:56:16.772Z,72.36
2023-02-02T07:58:44.486Z,71.80
2023-02-02T08:01:14.274Z,72.76
2023-02-02T08:03:43.072Z,72.57
2023-02-02T08:06:15.095Z,74.11
2023-02-02T08:08:42.340Z,75.30
2023-02-02T08:11:11.501Z,77.57
2023-02-02T08:13:39.836Z,77.02
2023-02-02T08:16:07.410Z,74.81
2023-02-02T08:18:36.101Z,73.12
2023-02-02T08:21:06.506Z,73.50
2023-02-02T08:23:33.541Z,73.53
2023-02-02T08:26:18.459Z,72.96
2023-02-02T08:28:48.296Z,72.04
2023-02-02T08:31:18.986Z,70.75
2023-02-02T08:33:46.290Z,70.37
2023-02-02T08:36:15.046Z,71.32
2023-02-02T08:38:42.388Z,70.25
2023-02-02T08:41:12.697Z,70.21
2023-02-02T08:43:40.824Z,70.99
2023-02-02T08:46:10.374Z,72.50
2023-02-02T08:48:38.259Z,71.60
2023-02-02T08:51:08.660Z,70.13
2023-02-02T08:53:35.740Z,70.59
2023-02-02T08:56:05.334Z,69.14
2023-02-02T08:58:33.941Z,71.28
2023-02-02T09:01:11.978Z,71.14
2023-02-02T09:03:40.415Z,70.56
2023-02-02T09:06:10.506Z,68.32
2023-02-02T09:08:37.922Z,67.94
2023-02-02T09:11:07.429Z,68.34
2023-02-02T09:13:35.581Z,67.84
2023-02-02T09:16:05.844Z,66.67
2023-02-02T09:18:33.200Z,66.74
2023-02-02T09:21:01.931Z,67.25
2023-02-02T09:23:34.047Z,67.53
2023-02-02T09:26:24.633Z,68.42
2023-02-02T09:28:56.965Z,66.76
2023-02-02T09:31:25.566Z,66.32
2023-02-02T09:33:52.850Z,66.65
2023-02-02T09:36:23.013Z,65.49
2023-02-02T09:38:51.227Z,64.08
2023-02-02T09:41:24.035Z,64.41
2023-02-02T09:44:09.011Z,63.98
2023-02-02T09:47:07.562Z,62.29
2023-02-02T09:49:52.873Z,61.81
2023-02-02T09:52:37.283Z,63.09
2023-02-02T09:55:23.358Z,62.58
2023-02-02T09:57:55.669Z,64.73
2023-02-02T10:00:36.279Z,64.23
2023-02-02T10:03:19.515Z,63.51
2023-02-02T10:06:04.534Z,63.91
2023-02-02T10:08:39.180Z,64.13
2023-02-02T10:11:27.523Z,63.88
2023-02-02T10:14:01.586Z,63.84
2023-02-02T10:16:30.497Z,63.37
2023-02-02T10:19:05.030Z,63.83
2023-02-02T10:22:07.705Z,63.16
2023-02-02T10:24:36.103Z,63.75
2023-02-02T10:27:14.196Z,62.33
2023-02-02T10:30:02.027Z,64.19
2023-02-02T10:33:12.623Z,63.72
2023-02-02T10:35:54.011Z,63.61
2023-02-02T10:38:36.594Z,62.58
2023-02-02T10:41:37.722Z,62.28
2023-02-02T10:44:20.313Z,63.76
2023-02-02T10:46:52.286Z,63.75
2023-02-02T10:49:27.659Z,63.03
2023-02-02T10:52:15.710Z,62.77
2023-02-02T10:55:10.925Z,62.70
2023-02-02T10:58:02.464Z,63.34
2023-02-02T11:00:39.178Z,62.46
2023-02-02T11:03:10.516Z,61.33
2023-02-02T11:05:57.164Z,60.59
2023-02-02T11:08:39.430Z,60.10
2023-02-02T11:11:26.564Z,60.42
2023-02-02T11:14:14.449Z,59.89
2023-02-02T11:16:48.199Z,59.44
2023-02-02T11:19:18.341Z,60.38
2023-02-02T11:21:53.075Z,59.90
2023-02-02T11:24:31.674Z,60.12
2023-02-02T11:27:17.285Z,62.48
2023-02-02T11:29:55.082Z,62.52
2023-02-02T11:32:25.175Z,60.13
2023-02-02T11:35:15.651Z,61.52
2023-02-02T11:38:16.831Z,61.36
2023-02-02T11:40:45.168Z,61.22
2023-02-02T11:43:41.456Z,60.96
2023-02-02T11:46:17.955Z,60.24
2023-02-02T11:48:50.581Z,60.18
2023-02-02T11:51:26.067Z,59.91
2023-02-02T11:54:06.509Z,62.48
2023-02-02T11:56:36.826Z,62.63
2023-02-02T11:59:04.323Z,62.63
2023-02-02T12:01:35.682Z,62.84
2023-02-02T12:04:23.852Z,62.09
2023-02-02T12:06:50.963Z,63.22
2023-02-02T12:09:23.180Z,62.47
2023-02-02T12:12:10.553Z,61.96
2023-02-02T12:14:54.995Z,61.83
2023-02-02T12:17:42.184Z,62.20
2023-02-02T12:20:19.512Z,62.07
2023-02-02T12:23:14.221Z,63.01
2023-02-02T12:25:47.258Z,63.08
2023-02-02T12:28:20.027Z,63.46
2023-02-02T12:31:01.640Z,63.83
2023-02-02T12:33:37.603Z,63.59
2023-02-02T12:36:36.496Z,67.21
2023-02-02T12:39:22.481Z,66.00
2023-02-02T12:42:28.767Z,64.57
2023-02-02T12:45:10.656Z,65.29
2023-02-02T12:48:01.037Z,63.77
2023-02-02T12:50:35.976Z,65.05
2023-02-02T12:53:36.712Z,65.70
2023-02-02T12:56:26.177Z,64.79
2023-02-02T12:58:55.877Z,63.65
2023-02-02T13:02:00.384Z,63.55
2023-02-02T13:04:57.528Z,63.01
2023-02-02T13:07:34.811Z,64.60
2023-02-02T13:10:17.541Z,64.53
2023-02-02T13:13:09.191Z,62.93
2023-02-02T13:15:40.300Z,63.64
2023-02-02T13:18:39.041Z,64.63
2023-02-02T13:21:15.390Z,64.26
2023-02-02T13:23:50.581Z,65.94
2023-02-02T13:26:24.593Z,66.08
2023-02-02T13:29:14.637Z,65.66
2023-02-02T13:31:59.592Z,65.59
2023-02-02T13:34:49.810Z,65.58
2023-02-02T13:37:37.781Z,64.82
2023-02-02T13:40:15.154Z,64.70
2023-02-02T13:42:51.233Z,66.07
2023-02-02T13:45:48.447Z,66.19
2023-02-02T13:48:50.932Z,66.16
2023-02-02T13:51:51.449Z,65.89
2023-02-02T13:54:52.078Z,66.51
2023-02-02T13:57:31.134Z,67.93
2023-02-02T14:00:04.942Z,67.57
2023-02-02T14:02:50.391Z,67.93
2023-02-02T14:05:30.052Z,70.39
2023-02-02T14:08:15.279Z,69.36
2023-02-02T14:10:54.462Z,68.64
2023-02-02T14:13:44.197Z,68.38
2023-02-02T14:16:45.716Z,67.58
2023-02-02T14:19:36.084Z,68.57
2023-02-02T14:22:09.258Z,67.77
2023-02-02T14:24:36.321Z,69.65
2023-02-02T14:27:09.718Z,69.55
2023-02-02T14:29:46.895Z,68.38
2023-02-02T14:32:29.447Z,69.81
2023-02-02T14:34:59.161Z,70.03
2023-02-02T14:37:30.118Z,69.32
2023-02-02T14:40:06.341Z,69.58
2023-02-02T14:43:36.767Z,68.52
2023-02-02T14:46:15.973Z,69.19
2023-02-02T14:48:57.226Z,71.13
2023-02-02T14:51:28.043Z,70.24
2023-02-02T14:54:05.086Z,70.95
2023-02-02T14:56:51.228Z,71.24
2023-02-02T14:59:26.772Z,72.28
2023-02-02T15:02:02.610Z,72.40
2023-02-02T15:04:30.420Z,71.32
2023-02-02T15:07:23.588Z,71.90
2023-02-02T15:09:52.048Z,71.59
2023-02-02T15:12:49.553Z,70.95
2023-02-02T15:15:22.526Z,69.42
2023-02-02T15:18:02.919Z,71.52
2023-02-02T15:20:34.326Z,69.98
2023-02-02T15:23:19.400Z,70.43
2023-02-02T15:26:17.530Z,70.01
2023-02-02T15:28:54.998Z,69.00
2023-02-02T15:31:36.909Z,69.72
2023-02-02T15:34:10.223Z,69.99
2023-02-02T15:36:43.006Z,69.41
2023-02-02T15:39:31.157Z,71.25
2023-02-02T15:42:19.685Z,70.72
2023-02-02T15:44:46.823Z,71.22
2023-02-02T15:47:19.823Z,70.77
2023-02-02T15:49:46.966Z,70.85
2023-02-02T15:52:18.664Z,70.27
2023-02-02T15:55:00.153Z,68.94
2023-02-02T15:57:34.294Z,69.46
2023-02-02T16:00:23.388Z,69.53
2023-02-02T16:03:01.763Z,73.52
2023-02-02T16:05:31.946Z,72.98
2023-02-02T16:08:05.982Z,72.68
2023-02-02T16:10:34.758Z,72.75
2023-02-02T16:13:02.688Z,71.92
2023-02-02T16:15:32.046Z,71.94
2023-02-02T16:18:05.736Z,70.23
2023-02-02T16:20:36.448Z,70.76
2023-02-02T16:23:06.950Z,71.40
2023-02-02T16:25:39.421Z,70.90
2023-02-02T16:28:06.897Z,71.12
2023-02-02T16:30:38.054Z,70.67
2023-02-02T16:33:34.276Z,70.85
2023-02-02T16:36:04.347Z,71.03
2023-02-02T16:38:33.683Z,71.90
2023-02-02T16:41:12.280Z,71.95
2023-02-02T16:43:41.504Z,72.12
2023-02-02T16:46:13.321Z,72.68
2023-02-02T16:48:44.602Z,71.54
2023-02-02T16:51:17.979Z,71.31
2023-02-02T16:53:59.190Z,70.91
2023-02-02T16:56:35.244Z,71.56
2023-02-02T16:59:28.759Z,72.52
2023-02-02T17:02:01.733Z,72.89
2023-02-02T17:04:31.971Z,71.76
2023-02-02T17:07:08.410Z,73.88
2023-02-02T17:09:40.320Z,72.15
2023-02-02T17:12:32.246Z,72.21
2023-02-02T17:15:05.753Z,72.82
2023-02-02T17:17:32.832Z,72.59
2023-02-02T17:19:59.870Z,74.35
2023-02-02T17:22:30.298Z,74.00
2023-02-02T17:24:58.704Z,73.83
2023-02-02T17:27:33.991Z,73.57
2023-02-02T17:30:03.561Z,73.75
2023-02-02T17:32:31.342Z,72.76
2023-02-02T17:34:58.421Z,72.95
2023-02-02T17:37:25.458Z,73.16
2023-02-02T17:39:52.584Z,75.47
2023-02-02T17:42:28.560Z,76.55
2023-02-02T17:44:57.643Z,76.29
2023-02-02T17:47:24.690Z,75.54
2023-02-02T17:49:51.718Z,75.17
2023-02-02T17:52:18.866Z,74.69
2023-02-02T17:54:45.857Z,75.51
2023-02-02T17:57:12.935Z,75.11
2023-02-02T17:59:39.937Z,73.92
2023-02-02T18:02:07.347Z,75.35
2023-02-02T18:04:35.656Z,75.86
2023-02-02T18:07:03.784Z,75.34
2023-02-02T18:09:34.147Z,75.00
2023-02-02T18:12:01.304Z,74.81
2023-02-02T18:14:28.790Z,74.47
2023-02-02T18:16:56.274Z,74.45
2023-02-02T18:19:23.338Z,75.47
2023-02-02T18:21:50.516Z,75.76
2023-02-02T18:24:17.566Z,74.13
2023-02-02T18:26:44.630Z,73.24
2023-02-02T18:29:11.690Z,74.27
2023-02-02T18:31:40.639Z,74.42
2023-02-02T18:34:09.300Z,74.85
2023-02-02T18:36:37.073Z,75.05
2023-02-02T18:39:04.202Z,74.47
2023-02-02T18:41:31.321Z,74.53
2023-02-02T18:43:58.466Z,74.09
2023-02-02T18:46:26.869Z,73.15
2023-02-02T18:48:55.324Z,73.00
2023-02-02T18:51:22.385Z,73.64
2023-02-02T18:53:49.554Z,73.27
2023-02-02T18:56:17.434Z,73.42
2023-02-02T18:58:44.680Z,75.48
2023-02-02T19:01:17.636Z,75.69
2023-02-02T19:03:52.123Z,74.60
2023-02-02T19:06:38.526Z,74.22
2023-02-02T19:09:06.276Z,73.43
2023-02-02T19:11:43.139Z,74.06
2023-02-02T19:14:43.390Z,74.29
2023-02-02T19:17:35.995Z,74.53
2023-02-02T19:20:19.549Z,74.83
2023-02-02T19:22:46.657Z,74.78
2023-02-02T19:25:13.781Z,76.22
2023-02-02T19:27:41.144Z,76.74
2023-02-02T19:30:22.799Z,77.20
2023-02-02T19:32:51.839Z,77.53
2023-02-02T19:35:21.585Z,77.46
2023-02-02T19:37:50.371Z,78.60
2023-02-02T19:40:25.579Z,79.59
2023-02-02T19:43:13.636Z,79.08
2023-02-02T19:45:41.179Z,78.88
2023-02-02T19:48:18.031Z,78.97
2023-02-02T19:50:46.422Z,78.95
2023-02-02T19:53:23.152Z,79.38
2023-02-02T19:55:51.647Z,80.47
2023-02-02T19:58:22.259Z,79.30
2023-02-02T20:00:51.197Z,79.21
2023-02-02T20:03:26.251Z,80.73
2023-02-02T20:05:55.539Z,82.20
2023-02-02T20:08:25.375Z,82.26
2023-02-02T20:10:55.158Z,81.19
2023-02-02T20:13:25.787Z,82.32
2023-02-02T20:16:03.696Z,82.38
2023-02-02T20:18:37.281Z,82.98
2023-02-02T20:21:09.817Z,82.74
2023-02-02T20:23:43.054Z,81.86
2023-02-02T20:26:36.407Z,83.03
2023-02-02T20:29:41.558Z,82.32
2023-02-02T20:32:19.126Z,81.70
2023-02-02T20:34:46.423Z,81.91
2023-02-02T20:37:29.305Z,82.39
2023-02-02T20:40:02.914Z,81.85
2023-02-02T20:42:31.494Z,82.64
2023-02-02T20:44:58.575Z,82.38
2023-02-02T20:47:25.731Z,83.02
2023-02-02T20:49:52.733Z,81.79
2023-02-02T20:52:24.121Z,83.35
2023-02-02T20:54:52.180Z,83.07
2023-02-02T20:57:19.687Z,82.20
2023-02-02T20:59:46.762Z,83.00
2023-02-02T21:02:19.397Z,83.25
2023-02-02T21:04:50.758Z,83.35
2023-02-02T21:07:20.763Z,82.60
2023-02-02T21:09:50.647Z,81.25
2023-02-02T21:12:18.482Z,80.58
2023-02-02T21:14:45.527Z,83.68
2023-02-02T21:17:15.467Z,83.84
2023-02-02T21:19:43.949Z,82.81
2023-02-02T21:22:12.087Z,83.98
2023-02-02T21:24:39.415Z,83.28
2023-02-02T21:27:06.873Z,83.09
2023-02-02T21:29:34.043Z,83.33
2023-02-02T21:32:02.783Z,81.22
2023-02-02T21:34:31.226Z,80.62
2023-02-02T21:36:58.991Z,79.46
2023-02-02T21:39:35.384Z,81.63
2023-02-02T21:42:08.476Z,81.83
2023-02-02T21:44:37.636Z,81.26
2023-02-02T21:47:22.852Z,80.37
2023-02-02T21:49:49.901Z,79.64
2023-02-02T21:52:19.091Z,80.02
2023-02-02T21:54:48.163Z,79.78
2023-02-02T21:57:19.507Z,78.69
2023-02-02T21:59:49.670Z,78.77
2023-02-02T22:02:34.884Z,78.90
2023-02-02T22:05:02.797Z,79.04
2023-02-02T22:07:33.139Z,78.92
2023-02-02T22:10:00.291Z,78.30
2023-02-02T22:12:28.712Z,78.53
2023-02-02T22:15:01.340Z,78.40
2023-02-02T22:17:49.418Z,78.13
2023-02-02T22:20:16.419Z,78.44
2023-02-02T22:22:49.044Z,78.66
2023-02-02T22:25:18.811Z,79.67
2023-02-02T22:27:54.487Z,79.13
2023-02-02T22:30:37.314Z,80.44
2023-02-02T22:33:06.532Z,79.37
2023-02-02T22:35:34.743Z,79.38
2023-02-02T22:38:02.624Z,79.30
2023-02-02T22:40:29.805Z,78.25
2023-02-02T22:42:59.097Z,77.90
2023-02-02T22:45:26.716Z,79.34
2023-02-02T22:47:53.994Z,78.69
2023-02-02T22:50:24.683Z,78.57
2023-02-02T22:52:52.350Z,77.37
2023-02-02T22:55:19.826Z,77.47
2023-02-02T22:57:46.955Z,78.59
2023-02-02T23:00:17.751Z,79.99
2023-02-02T23:02:44.967Z,79.07
2023-02-02T23:05:14.160Z,78.26
2023-02-02T23:07:44.147Z,79.37
2023-02-02T23:10:18.581Z,81.51
2023-02-02T23:12:46.223Z,79.95
2023-02-02T23:15:14.391Z,79.89
2023-02-02T23:17:41.864Z,80.32
2023-02-02T23:20:12.020Z,79.30
2023-02-02T23:22:39.146Z,79.42
2023-02-02T23:25:06.749Z,79.10
2023-02-02T23:27:34.008Z,80.07
2023-02-02T23:30:01.035Z,79.94
2023-02-02T23:32:28.166Z,80.06
2023-02-02T23:34:55.163Z,79.34
2023-02-02T23:37:22.179Z,79.96
2023-02-02T23:39:49.208Z,79.41
2023-02-02T23:42:16.263Z,78.22
2023-02-02T23:44:43.329Z,79.11
2023-02-02T23:47:10.915Z,78.79
2023-02-02T23:49:38.391Z,78.23
2023-02-02T23:52:06.246Z,78.29
2023-02-02T23:54:33.800Z,78.82
2023-02-02T23:57:01.799Z,78.72
2023-02-02T23:59:28.946Z,79.05
